Time;durP1;ratioP1;P1;durP2;ratioP2;P2;SDS_P1;SDS_P2;PMS_P1;PMS_P2;Temp;Humidity;BMP_temperature;BMP_pressure;BME280_temperature;BME280_humidity;BME280_pressure;Samples;Min_cycle;Max_cycle;Signal;HPM_P1;HPM_P2
2023/06/17 00:00:21;;;;;;;5.35;4.85;;;;;;;;;;6063616;23;20019;-92
2023/06/17 00:02:47;;;;;;;5.10;4.50;;;;;;;;;;6064139;23;20022;-93
2023/06/17 00:05:13;;;;;;;5.35;4.55;;;;;;;;;;6064095;23;20019;-91
2023/06/17 00:07:39;;;;;;;6.65;5.10;;;;;;;;;;6064755;23;20472;-92
2023/06/17 00:10:06;;;;;;;6.45;4.80;;;;;;;;;;6089222;23;20019;-93
2023/06/17 00:12:33;;;;;;;6.00;4.88;;;;;;;;;;6088559;23;20115;-92
2023/06/17 00:15:01;;;;;;;6.03;4.53;;;;;;;;;;6064449;23;20446;-94
2023/06/17 00:17:30;;;;;;;5.18;4.68;;;;;;;;;;6065831;23;20016;-93
2023/06/17 00:19:57;;;;;;;6.85;4.80;;;;;;;;;;6064126;23;20015;-91
2023/06/17 00:22:26;;;;;;;5.40;4.80;;;;;;;;;;6088043;23;20014;-93
2023/06/17 00:24:52;;;;;;;7.10;4.55;;;;;;;;;;6088803;23;20079;-91
2023/06/17 00:27:18;;;;;;;6.60;4.85;;;;;;;;;;6063679;23;20015;-91
2023/06/17 00:29:44;;;;;;;6.30;4.80;;;;;;;;;;6065996;23;20345;-92
2023/06/17 00:32:10;;;;;;;6.88;4.70;;;;;;;;;;6064520;23;20030;-92
2023/06/17 00:34:36;;;;;;;7.15;5.72;;;;;;;;;;6065323;23;20019;-91
2023/06/17 00:37:03;;;;;;;6.95;5.13;;;;;;;;;;6064973;23;20452;-91
2023/06/17 00:39:29;;;;;;;6.35;5.47;;;;;;;;;;6064457;23;20377;-92
2023/06/17 00:41:56;;;;;;;8.77;5.70;;;;;;;;;;6064037;23;20015;-92
2023/06/17 00:44:22;;;;;;;6.78;6.07;;;;;;;;;;6063669;23;20067;-91
2023/06/17 00:46:50;;;;;;;7.57;5.55;;;;;;;;;;6063864;23;20445;-92
2023/06/17 00:49:16;;;;;;;8.30;5.85;;;;;;;;;;6064295;23;20374;-91
2023/06/17 00:51:42;;;;;;;8.07;5.63;;;;;;;;;;6066206;23;20030;-92
2023/06/17 00:54:09;;;;;;;7.88;6.30;;;;;;;;;;6065388;23;20038;-92
2023/06/17 00:56:36;;;;;;;9.88;6.68;;;;;;;;;;6063039;23;20022;-91
2023/06/17 00:59:03;;;;;;;9.25;6.15;;;;;;;;;;6087684;23;20019;-92
2023/06/17 01:01:29;;;;;;;8.27;6.00;;;;;;;;;;6063799;23;20337;-91
2023/06/17 01:03:59;;;;;;;6.72;5.72;;;;;;;;;;6064777;23;20014;-92
2023/06/17 01:06:33;;;;;;;7.40;5.93;;;;;;;;;;6065679;23;20449;-92
2023/06/17 01:09:09;;;;;;;10.95;6.78;;;;;;;;;;6067316;23;20389;-91
2023/06/17 01:11:36;;;;;;;6.80;5.57;;;;;;;;;;6090290;23;20026;-91
2023/06/17 01:14:02;;;;;;;8.02;6.43;;;;;;;;;;6065287;23;20018;-92
2023/06/17 01:16:31;;;;;;;6.55;5.55;;;;;;;;;;6065721;23;20019;-92
2023/06/17 01:18:58;;;;;;;11.10;7.53;;;;;;;;;;6064686;23;20423;-92
2023/06/17 01:21:28;;;;;;;9.38;7.40;;;;;;;;;;6070428;23;20118;-91
2023/06/17 01:23:58;;;;;;;9.00;6.88;;;;;;;;;;6098737;23;20015;-91
2023/06/17 01:26:24;;;;;;;10.07;6.60;;;;;;;;;;6105036;23;20074;-93
2023/06/17 01:28:53;;;;;;;7.97;6.60;;;;;;;;;;6087469;23;20071;-93
2023/06/17 01:31:19;;;;;;;9.52;6.78;;;;;;;;;;6076806;23;20026;-90
2023/06/17 01:33:50;;;;;;;10.95;6.60;;;;;;;;;;6065960;23;20109;-89
2023/06/17 01:36:23;;;;;;;11.50;7.22;;;;;;;;;;6077232;23;20022;-90
2023/06/17 01:38:51;;;;;;;10.00;7.38;;;;;;;;;;6087541;23;20089;-93
2023/06/17 01:41:26;;;;;;;12.45;7.45;;;;;;;;;;6090474;23;20337;-90
2023/06/17 01:43:56;;;;;;;10.23;7.90;;;;;;;;;;6064209;23;20377;-90
2023/06/17 01:46:24;;;;;;;10.18;7.00;;;;;;;;;;6066443;23;20434;-92
2023/06/17 01:48:52;;;;;;;7.85;6.93;;;;;;;;;;6066172;23;20570;-93
2023/06/17 01:51:19;;;;;;;8.48;6.47;;;;;;;;;;6065568;23;20093;-93
2023/06/17 01:53:45;;;;;;;9.65;7.38;;;;;;;;;;6065590;23;20029;-91
2023/06/17 01:56:11;;;;;;;12.15;7.82;;;;;;;;;;6066315;23;20054;-90
2023/06/17 01:58:38;;;;;;;13.23;8.82;;;;;;;;;;6069454;23;20047;-93
2023/06/17 02:01:04;;;;;;;10.50;7.88;;;;;;;;;;6074965;23;20050;-93
2023/06/17 02:03:30;;;;;;;11.23;8.98;;;;;;;;;;6070900;23;20015;-91
2023/06/17 02:05:56;;;;;;;10.88;8.45;;;;;;;;;;6076714;23;20023;-92
2023/06/17 02:08:23;;;;;;;15.38;9.95;;;;;;;;;;6078551;23;20046;-94
2023/06/17 02:10:49;;;;;;;14.40;10.75;;;;;;;;;;6070260;23;20018;-92
2023/06/17 02:13:15;;;;;;;13.60;9.43;;;;;;;;;;6067361;23;20055;-92
2023/06/17 02:15:42;;;;;;;12.32;10.48;;;;;;;;;;6098594;23;20381;-92
2023/06/17 02:18:09;;;;;;;12.38;8.57;;;;;;;;;;6093607;23;20019;-92
2023/06/17 02:20:35;;;;;;;14.35;8.68;;;;;;;;;;6091507;23;20019;-93
2023/06/17 02:23:01;;;;;;;14.05;9.50;;;;;;;;;;6066198;23;20015;-91
2023/06/17 02:25:28;;;;;;;12.90;8.80;;;;;;;;;;6069946;23;20051;-93
2023/06/17 02:27:54;;;;;;;14.82;10.18;;;;;;;;;;6067545;23;20011;-92
2023/06/17 02:30:20;;;;;;;13.45;8.48;;;;;;;;;;6068987;23;20033;-93
2023/06/17 02:32:46;;;;;;;12.27;9.38;;;;;;;;;;6068044;23;20070;-90
2023/06/17 02:35:12;;;;;;;11.73;8.52;;;;;;;;;;6073492;23;20456;-93
2023/06/17 02:37:38;;;;;;;13.27;9.77;;;;;;;;;;6097121;23;20015;-93
2023/06/17 02:40:08;;;;;;;13.00;9.27;;;;;;;;;;6088804;23;20018;-91
2023/06/17 02:42:34;;;;;;;11.70;9.02;;;;;;;;;;6095400;23;20479;-91
2023/06/17 02:45:00;;;;;;;13.60;9.00;;;;;;;;;;6063210;23;20067;-91
2023/06/17 02:47:26;;;;;;;11.98;9.15;;;;;;;;;;6067679;23;20011;-93
2023/06/17 02:49:52;;;;;;;13.60;9.60;;;;;;;;;;6070650;23;20090;-91
2023/06/17 02:52:18;;;;;;;12.93;9.88;;;;;;;;;;6095158;23;20023;-93
2023/06/17 02:54:44;;;;;;;15.43;8.75;;;;;;;;;;6072276;23;20102;-92
2023/06/17 02:57:10;;;;;;;13.65;8.45;;;;;;;;;;6069971;23;20022;-92
2023/06/17 02:59:37;;;;;;;15.77;9.48;;;;;;;;;;6092032;23;20019;-91
2023/06/17 03:02:03;;;;;;;14.90;9.98;;;;;;;;;;6087042;23;20021;-93
2023/06/17 03:04:35;;;;;;;15.05;9.25;;;;;;;;;;6069316;23;20469;-93
2023/06/17 03:07:07;;;;;;;13.75;9.65;;;;;;;;;;6089116;23;20082;-91
2023/06/17 03:09:33;;;;;;;11.27;7.93;;;;;;;;;;6064852;23;20050;-91
2023/06/17 03:12:02;;;;;;;12.63;8.77;;;;;;;;;;6088708;23;20023;-92
2023/06/17 03:14:29;;;;;;;11.93;8.60;;;;;;;;;;6069788;23;20022;-93
2023/06/17 03:16:57;;;;;;;13.80;10.00;;;;;;;;;;6067008;23;20023;-93
2023/06/17 03:19:24;;;;;;;13.73;9.10;;;;;;;;;;6092470;23;20089;-91
2023/06/17 03:21:50;;;;;;;14.40;10.55;;;;;;;;;;6076209;23;20015;-92
2023/06/17 03:24:16;;;;;;;14.07;8.75;;;;;;;;;;6065402;23;20019;-92
2023/06/17 03:26:43;;;;;;;14.35;8.50;;;;;;;;;;6075354;23;20019;-92
2023/06/17 03:29:09;;;;;;;16.83;10.30;;;;;;;;;;6070753;23;20015;-91
2023/06/17 03:31:35;;;;;;;14.35;11.18;;;;;;;;;;6071744;23;20336;-93
2023/06/17 03:34:01;;;;;;;13.52;10.32;;;;;;;;;;6087348;23;20046;-91
2023/06/17 03:36:30;;;;;;;15.50;9.73;;;;;;;;;;6063886;23;20019;-91
2023/06/17 03:38:58;;;;;;;15.77;9.75;;;;;;;;;;6066421;23;20019;-93
2023/06/17 03:41:25;;;;;;;13.38;8.93;;;;;;;;;;6068578;23;20042;-92
2023/06/17 03:43:51;;;;;;;12.45;8.55;;;;;;;;;;6072146;23;20018;-91
2023/06/17 03:46:18;;;;;;;15.40;9.82;;;;;;;;;;6062864;23;20011;-90
2023/06/17 03:48:44;;;;;;;16.73;9.45;;;;;;;;;;6063513;23;20022;-92
2023/06/17 03:51:11;;;;;;;17.08;9.95;;;;;;;;;;6065712;23;20094;-92
2023/06/17 03:53:37;;;;;;;15.35;9.25;;;;;;;;;;6064432;23;20015;-93
2023/06/17 03:56:03;;;;;;;17.33;10.05;;;;;;;;;;6063455;23;20093;-93
2023/06/17 03:58:29;;;;;;;16.15;10.13;;;;;;;;;;6066957;23;20396;-93
2023/06/17 04:00:56;;;;;;;16.40;11.23;;;;;;;;;;6067583;23;20075;-94
2023/06/17 04:03:24;;;;;;;14.73;10.18;;;;;;;;;;6063673;23;20019;-94
2023/06/17 04:05:51;;;;;;;17.83;10.50;;;;;;;;;;6087354;23;20075;-92
2023/06/17 04:08:18;;;;;;;16.50;9.00;;;;;;;;;;6065103;23;20014;-92
2023/06/17 04:10:44;;;;;;;14.48;10.57;;;;;;;;;;6063789;23;20404;-92
2023/06/17 04:13:10;;;;;;;16.17;10.18;;;;;;;;;;6066463;23;20038;-92
2023/06/17 04:15:36;;;;;;;13.13;9.27;;;;;;;;;;6063192;23;20085;-91
2023/06/17 04:18:02;;;;;;;13.70;9.55;;;;;;;;;;6064833;23;20021;-90
2023/06/17 04:20:29;;;;;;;14.43;9.63;;;;;;;;;;6064619;23;20018;-93
2023/06/17 04:22:55;;;;;;;14.68;9.90;;;;;;;;;;6062960;23;20015;-91
2023/06/17 04:25:22;;;;;;;16.30;10.23;;;;;;;;;;6065074;23;20038;-90
2023/06/17 04:27:49;;;;;;;16.05;10.10;;;;;;;;;;6064982;23;20048;-91
2023/06/17 04:30:15;;;;;;;14.27;10.48;;;;;;;;;;6089323;23;20015;-93
2023/06/17 04:32:42;;;;;;;14.50;10.43;;;;;;;;;;6065861;23;20015;-93
2023/06/17 04:35:09;;;;;;;16.15;10.52;;;;;;;;;;6066140;23;20345;-91
2023/06/17 04:37:36;;;;;;;16.67;11.02;;;;;;;;;;6089437;23;20070;-92
2023/06/17 04:40:12;;;;;;;18.10;10.88;;;;;;;;;;6068915;23;20026;-93
2023/06/17 04:42:40;;;;;;;13.32;9.88;;;;;;;;;;6069827;23;20396;-95
2023/06/17 04:45:08;;;;;;;14.38;9.75;;;;;;;;;;6092397;23;20603;-93
2023/06/17 04:47:34;;;;;;;16.60;10.60;;;;;;;;;;6069137;23;20018;-92
2023/06/17 04:50:00;;;;;;;14.07;9.10;;;;;;;;;;6072041;23;20011;-93
2023/06/17 04:52:29;;;;;;;15.82;9.88;;;;;;;;;;6077576;23;20023;-93
2023/06/17 04:54:55;;;;;;;14.70;10.07;;;;;;;;;;6075080;23;20018;-94
2023/06/17 04:57:22;;;;;;;15.40;10.18;;;;;;;;;;6068258;23;20022;-94
2023/06/17 04:59:48;;;;;;;14.30;9.23;;;;;;;;;;6093452;23;20505;-93
2023/06/17 05:02:15;;;;;;;13.57;9.65;;;;;;;;;;6068482;23;20027;-94
2023/06/17 05:04:41;;;;;;;14.77;10.32;;;;;;;;;;6092964;23;20018;-92
2023/06/17 05:07:07;;;;;;;19.58;11.88;;;;;;;;;;6064898;23;20063;-94
2023/06/17 05:09:33;;;;;;;15.40;11.02;;;;;;;;;;6089330;23;20015;-94
2023/06/17 05:11:59;;;;;;;15.90;10.10;;;;;;;;;;6064476;23;20019;-92
2023/06/17 05:14:25;;;;;;;14.50;10.07;;;;;;;;;;6064237;23;20026;-92
2023/06/17 05:16:51;;;;;;;15.63;10.35;;;;;;;;;;6066132;23;20015;-94
2023/06/17 05:19:17;;;;;;;19.73;14.80;;;;;;;;;;6090240;23;20015;-92
2023/06/17 05:21:43;;;;;;;15.32;11.15;;;;;;;;;;6064739;23;20030;-94
2023/06/17 05:24:09;;;;;;;15.60;10.80;;;;;;;;;;6064918;23;20015;-93
2023/06/17 05:26:35;;;;;;;17.58;12.20;;;;;;;;;;6064697;23;20018;-95
2023/06/17 05:29:01;;;;;;;16.25;10.20;;;;;;;;;;6067256;23;20100;-93
2023/06/17 05:31:27;;;;;;;14.90;10.38;;;;;;;;;;6069749;23;20092;-94
2023/06/17 05:33:54;;;;;;;13.48;9.23;;;;;;;;;;6092206;23;20019;-95
2023/06/17 05:36:20;;;;;;;14.10;10.43;;;;;;;;;;6075933;23;20097;-94
2023/06/17 05:38:46;;;;;;;14.65;10.98;;;;;;;;;;6095525;23;20342;-94
2023/06/17 05:41:12;;;;;;;14.02;10.55;;;;;;;;;;6065082;23;20015;-95
2023/06/17 05:43:38;;;;;;;15.15;9.73;;;;;;;;;;6068091;23;20043;-94
2023/06/17 05:46:04;;;;;;;12.57;8.48;;;;;;;;;;6072807;23;20019;-95
2023/06/17 05:48:30;;;;;;;14.00;9.85;;;;;;;;;;6076186;23;20015;-96
2023/06/17 05:50:56;;;;;;;12.18;9.57;;;;;;;;;;6094566;23;20015;-96
2023/06/17 05:53:22;;;;;;;14.38;10.18;;;;;;;;;;6069969;23;20019;-93
2023/06/17 05:55:48;;;;;;;17.92;10.90;;;;;;;;;;6068204;23;20049;-94
2023/06/17 05:58:14;;;;;;;14.98;10.75;;;;;;;;;;6073331;23;20042;-92
2023/06/17 06:00:41;;;;;;;13.30;10.20;;;;;;;;;;6068166;23;20022;-96
2023/06/17 06:03:08;;;;;;;15.57;12.20;;;;;;;;;;6091464;23;20058;-96
2023/06/17 06:05:34;;;;;;;16.58;11.45;;;;;;;;;;6092719;23;20082;-92
2023/06/17 06:08:00;;;;;;;16.10;10.50;;;;;;;;;;6068138;23;20015;-96
2023/06/17 06:10:28;;;;;;;18.98;11.23;;;;;;;;;;6069521;23;20015;-95
2023/06/17 06:12:54;;;;;;;15.05;10.10;;;;;;;;;;6072695;23;20365;-96
2023/06/17 06:15:20;;;;;;;17.17;10.68;;;;;;;;;;6074806;23;20038;-95
2023/06/17 06:17:46;;;;;;;14.70;10.10;;;;;;;;;;6065472;23;20015;-92
2023/06/17 06:20:12;;;;;;;17.00;10.25;;;;;;;;;;6066643;23;20310;-94
2023/06/17 06:22:38;;;;;;;13.88;10.82;;;;;;;;;;6063425;23;20025;-93
2023/06/17 06:25:05;;;;;;;15.65;9.45;;;;;;;;;;6065015;23;20480;-96
2023/06/17 06:27:31;;;;;;;14.45;9.68;;;;;;;;;;6093290;23;20019;-96
2023/06/17 06:29:57;;;;;;;13.52;10.13;;;;;;;;;;6091807;23;20079;-95
2023/06/17 06:32:23;;;;;;;14.32;9.55;;;;;;;;;;6094584;23;20078;-96
2023/06/17 06:34:50;;;;;;;16.02;9.85;;;;;;;;;;6090181;23;20025;-95
2023/06/17 06:37:16;;;;;;;17.00;11.07;;;;;;;;;;6093623;23;20014;-92
2023/06/17 06:39:45;;;;;;;17.77;12.38;;;;;;;;;;6061686;23;20318;-90
2023/06/17 06:42:11;;;;;;;15.00;10.68;;;;;;;;;;6065381;23;20055;-90
2023/06/17 06:44:37;;;;;;;16.65;10.93;;;;;;;;;;6074203;23;20026;-95
2023/06/17 06:47:03;;;;;;;16.15;11.73;;;;;;;;;;6066979;23;20100;-94
2023/06/17 06:49:29;;;;;;;15.10;10.57;;;;;;;;;;6090696;23;20015;-96
2023/06/17 06:51:55;;;;;;;17.27;11.80;;;;;;;;;;6093491;23;20318;-95
2023/06/17 06:54:21;;;;;;;14.23;10.73;;;;;;;;;;6072838;23;20019;-95
2023/06/17 06:56:47;;;;;;;14.98;9.63;;;;;;;;;;6092462;23;20019;-95
2023/06/17 06:59:14;;;;;;;14.48;9.77;;;;;;;;;;6072223;23;20027;-96
2023/06/17 07:01:40;;;;;;;13.43;9.73;;;;;;;;;;6096076;23;20011;-96
2023/06/17 07:04:06;;;;;;;14.73;9.80;;;;;;;;;;6090603;23;20015;-96
2023/06/17 07:06:32;;;;;;;17.13;11.25;;;;;;;;;;6071898;23;20025;-95
2023/06/17 07:09:01;;;;;;;14.65;10.57;;;;;;;;;;6095028;23;20019;-94
2023/06/17 07:11:28;;;;;;;14.82;10.02;;;;;;;;;;6073016;23;20018;-95
2023/06/17 07:13:54;;;;;;;13.77;9.00;;;;;;;;;;6073225;23;20033;-93
2023/06/17 07:16:20;;;;;;;13.20;9.25;;;;;;;;;;6071473;23;20025;-93
2023/06/17 07:18:46;;;;;;;12.75;9.27;;;;;;;;;;6079527;23;20023;-93
2023/06/17 07:21:12;;;;;;;13.88;9.40;;;;;;;;;;6105025;23;20031;-92
2023/06/17 07:23:38;;;;;;;12.55;9.02;;;;;;;;;;6080292;23;20026;-94
2023/06/17 07:26:04;;;;;;;15.40;9.77;;;;;;;;;;6083325;23;20027;-93
2023/06/17 07:28:31;;;;;;;13.07;9.75;;;;;;;;;;6077868;23;20014;-94
2023/06/17 07:30:57;;;;;;;14.15;10.45;;;;;;;;;;6091257;23;20027;-93
2023/06/17 07:33:23;;;;;;;13.55;10.13;;;;;;;;;;6079790;23;20026;-95
2023/06/17 07:35:49;;;;;;;17.67;10.85;;;;;;;;;;6072895;23;20033;-95
2023/06/17 07:38:15;;;;;;;13.52;9.77;;;;;;;;;;6080239;23;20007;-95
2023/06/17 07:40:41;;;;;;;10.88;9.10;;;;;;;;;;6077248;23;20050;-93
2023/06/17 07:43:08;;;;;;;12.73;9.93;;;;;;;;;;6067562;23;20015;-92
2023/06/17 07:45:34;;;;;;;13.15;10.57;;;;;;;;;;6064949;23;20425;-95
2023/06/17 07:48:24;;;;;;;13.07;10.35;;;;;;;;;;6074386;23;20003;-96
2023/06/17 07:50:50;;;;;;;15.27;9.65;;;;;;;;;;6110462;23;20046;-90
2023/06/17 07:53:16;;;;;;;15.18;10.65;;;;;;;;;;6065761;23;20122;-91
2023/06/17 07:55:42;;;;;;;13.25;9.93;;;;;;;;;;6084808;23;20054;-90
2023/06/17 07:58:08;;;;;;;14.52;10.27;;;;;;;;;;6061952;23;20034;-90
2023/06/17 08:00:35;;;;;;;12.77;9.90;;;;;;;;;;6063382;23;20015;-92
2023/06/17 08:03:01;;;;;;;14.25;10.13;;;;;;;;;;6063089;23;20015;-93
2023/06/17 08:05:27;;;;;;;15.02;9.65;;;;;;;;;;6063975;23;20026;-90
2023/06/17 08:07:53;;;;;;;14.02;9.00;;;;;;;;;;6066941;23;20018;-91
2023/06/17 08:10:19;;;;;;;10.32;9.10;;;;;;;;;;6066937;23;20055;-92
2023/06/17 08:12:46;;;;;;;14.20;9.52;;;;;;;;;;6069322;23;20018;-92
2023/06/17 08:15:12;;;;;;;15.02;9.35;;;;;;;;;;6072077;23;20026;-91
2023/06/17 08:17:38;;;;;;;15.40;9.77;;;;;;;;;;6066193;23;20015;-88
2023/06/17 08:20:04;;;;;;;16.45;12.65;;;;;;;;;;6064899;23;20142;-88
2023/06/17 08:22:30;;;;;;;15.68;9.90;;;;;;;;;;6068993;23;20014;-92
2023/06/17 08:24:56;;;;;;;13.18;9.25;;;;;;;;;;6066960;23;20093;-94
2023/06/17 08:27:22;;;;;;;17.15;11.23;;;;;;;;;;6065228;23;20481;-92
2023/06/17 08:29:48;;;;;;;13.48;9.90;;;;;;;;;;6067307;23;20509;-90
2023/06/17 08:32:14;;;;;;;13.73;9.10;;;;;;;;;;6064298;23;20058;-89
2023/06/17 08:34:41;;;;;;;13.02;10.48;;;;;;;;;;6066741;23;20105;-95
2023/06/17 08:37:08;;;;;;;11.45;10.10;;;;;;;;;;6093234;23;20078;-90
2023/06/17 08:39:39;;;;;;;15.82;10.38;;;;;;;;;;6066093;23;20026;-95
2023/06/17 08:42:05;;;;;;;13.38;10.23;;;;;;;;;;6066015;23;20018;-93
2023/06/17 08:44:36;;;;;;;15.30;9.57;;;;;;;;;;6067089;23;20011;-95
2023/06/17 08:47:03;;;;;;;12.27;9.35;;;;;;;;;;6067202;23;20521;-95
2023/06/17 08:49:29;;;;;;;13.07;10.93;;;;;;;;;;6065819;23;20059;-94
2023/06/17 08:51:56;;;;;;;13.75;10.30;;;;;;;;;;6064678;23;20018;-90
2023/06/17 08:54:23;;;;;;;9.85;8.20;;;;;;;;;;6065212;23;20015;-90
2023/06/17 08:56:50;;;;;;;15.00;12.18;;;;;;;;;;6065135;23;20058;-93
2023/06/17 08:59:16;;;;;;;13.63;10.32;;;;;;;;;;6062820;23;20014;-91
2023/06/17 09:01:44;;;;;;;13.63;9.73;;;;;;;;;;6064146;23;20019;-91
2023/06/17 09:04:10;;;;;;;14.13;10.02;;;;;;;;;;6065141;23;20066;-87
2023/06/17 09:06:36;;;;;;;13.30;9.60;;;;;;;;;;6062526;23;20022;-90
2023/06/17 09:09:02;;;;;;;11.77;8.88;;;;;;;;;;6086272;23;20011;-89
2023/06/17 09:11:30;;;;;;;13.20;9.30;;;;;;;;;;6061888;23;20444;-87
2023/06/17 09:13:57;;;;;;;13.15;9.40;;;;;;;;;;6064538;23;20098;-89
2023/06/17 09:16:26;;;;;;;13.60;9.85;;;;;;;;;;6064096;23;20018;-88
2023/06/17 09:18:56;;;;;;;14.25;10.57;;;;;;;;;;6064658;23;20015;-88
2023/06/17 09:21:23;;;;;;;12.88;9.25;;;;;;;;;;6062425;23;20027;-92
2023/06/17 09:23:56;;;;;;;13.50;10.25;;;;;;;;;;6063181;23;20023;-87
2023/06/17 09:26:42;;;;;;;13.95;9.50;;;;;;;;;;6063791;23;20022;-87
2023/06/17 09:29:11;;;;;;;13.23;10.50;;;;;;;;;;6063618;23;20341;-88
2023/06/17 09:31:51;;;;;;;12.25;9.32;;;;;;;;;;6063270;23;20022;-88
2023/06/17 09:34:17;;;;;;;11.38;8.85;;;;;;;;;;6064619;23;20317;-90
2023/06/17 09:36:43;;;;;;;12.23;9.18;;;;;;;;;;6062528;23;20085;-90
2023/06/17 09:39:13;;;;;;;12.43;9.27;;;;;;;;;;6065727;23;20062;-89
2023/06/17 09:41:45;;;;;;;11.95;9.23;;;;;;;;;;6064941;23;20022;-88
2023/06/17 09:44:14;;;;;;;11.38;8.85;;;;;;;;;;6064283;23;20023;-89
2023/06/17 09:46:46;;;;;;;11.32;8.60;;;;;;;;;;6065087;23;20024;-90
2023/06/17 09:49:16;;;;;;;11.43;8.38;;;;;;;;;;6065286;23;20018;-87
2023/06/17 09:51:42;;;;;;;11.73;8.43;;;;;;;;;;6065242;23;20019;-88
2023/06/17 09:54:09;;;;;;;11.43;8.07;;;;;;;;;;6063878;23;20094;-89
2023/06/17 09:56:37;;;;;;;10.85;7.82;;;;;;;;;;6063998;23;20023;-88
2023/06/17 09:59:03;;;;;;;10.75;7.95;;;;;;;;;;6063409;23;20031;-86
2023/06/17 10:01:30;;;;;;;10.98;7.40;;;;;;;;;;6064866;23;20449;-86
2023/06/17 10:04:00;;;;;;;10.88;8.73;;;;;;;;;;6064012;23;20049;-86
2023/06/17 10:06:30;;;;;;;9.43;7.18;;;;;;;;;;6064703;23;20015;-84
2023/06/17 10:08:57;;;;;;;11.48;8.95;;;;;;;;;;6063920;23;20648;-85
2023/06/17 10:11:25;;;;;;;10.60;7.38;;;;;;;;;;6062559;23;20056;-84
2023/06/17 10:14:00;;;;;;;9.73;7.38;;;;;;;;;;6063657;23;20042;-87
2023/06/17 10:16:28;;;;;;;10.90;8.10;;;;;;;;;;6063251;23;20090;-85
2023/06/17 10:18:56;;;;;;;8.93;7.57;;;;;;;;;;6064851;23;20057;-86
2023/06/17 10:21:23;;;;;;;8.02;6.50;;;;;;;;;;6062031;23;20058;-84
2023/06/17 10:23:50;;;;;;;8.80;7.75;;;;;;;;;;6064338;23;20044;-85
2023/06/17 10:26:17;;;;;;;8.55;7.22;;;;;;;;;;6063695;23;20015;-84
2023/06/17 10:28:57;;;;;;;10.35;7.60;;;;;;;;;;6064569;23;20094;-84
2023/06/17 10:31:37;;;;;;;9.57;7.10;;;;;;;;;;6062296;23;20026;-85
2023/06/17 10:34:03;;;;;;;9.32;7.35;;;;;;;;;;6062326;23;20063;-88
2023/06/17 10:36:30;;;;;;;8.20;6.45;;;;;;;;;;6063815;23;20011;-83
2023/06/17 10:38:57;;;;;;;9.63;7.72;;;;;;;;;;6062597;23;20093;-83
2023/06/17 10:41:36;;;;;;;8.48;7.28;;;;;;;;;;6061564;23;20132;-82
2023/06/17 10:44:22;;;;;;;7.25;6.35;;;;;;;;;;6062797;23;20057;-83
2023/06/17 10:46:51;;;;;;;9.20;6.40;;;;;;;;;;6062406;23;20019;-85
2023/06/17 10:49:17;;;;;;;9.88;7.10;;;;;;;;;;6085845;23;20378;-86
2023/06/17 10:51:57;;;;;;;8.20;6.65;;;;;;;;;;6063281;23;20018;-86
2023/06/17 10:54:27;;;;;;;8.02;7.18;;;;;;;;;;6063627;23;20183;-84
2023/06/17 10:56:53;;;;;;;9.75;6.97;;;;;;;;;;6062125;23;20027;-85
2023/06/17 10:59:30;;;;;;;7.57;6.35;;;;;;;;;;6062495;23;20019;-85
2023/06/17 11:02:03;;;;;;;8.98;6.35;;;;;;;;;;6064084;23;20015;-86
2023/06/17 11:04:32;;;;;;;9.02;6.63;;;;;;;;;;6061862;23;20402;-85
2023/06/17 11:06:59;;;;;;;7.03;5.95;;;;;;;;;;6064509;23;20023;-85
2023/06/17 11:09:28;;;;;;;7.32;6.13;;;;;;;;;;6062705;23;20081;-84
2023/06/17 11:11:55;;;;;;;7.95;6.40;;;;;;;;;;6064347;23;20342;-83
2023/06/17 11:14:21;;;;;;;7.90;5.50;;;;;;;;;;6064079;23;20014;-84
2023/06/17 11:16:47;;;;;;;9.18;6.38;;;;;;;;;;6063797;23;20014;-83
2023/06/17 11:19:13;;;;;;;11.68;7.60;;;;;;;;;;6060083;23;20456;-83
2023/06/17 11:21:40;;;;;;;8.73;6.68;;;;;;;;;;6085494;23;20015;-83
2023/06/17 11:24:06;;;;;;;8.25;7.45;;;;;;;;;;6062089;23;20401;-84
2023/06/17 11:26:32;;;;;;;6.85;6.18;;;;;;;;;;6061887;23;20018;-85
2023/06/17 11:28:59;;;;;;;7.95;5.88;;;;;;;;;;6062894;23;20023;-87
2023/06/17 11:31:26;;;;;;;7.25;5.72;;;;;;;;;;6064280;23;20015;-85
2023/06/17 11:33:59;;;;;;;8.18;6.30;;;;;;;;;;6061919;23;20142;-90
2023/06/17 11:36:25;;;;;;;6.65;6.05;;;;;;;;;;6062367;23;20421;-85
2023/06/17 11:38:52;;;;;;;5.70;5.13;;;;;;;;;;6065883;23;20348;-87
2023/06/17 11:41:18;;;;;;;7.75;6.43;;;;;;;;;;6064522;23;20022;-87
2023/06/17 11:43:45;;;;;;;9.00;6.03;;;;;;;;;;6064988;23;20037;-85
2023/06/17 11:46:11;;;;;;;6.10;5.13;;;;;;;;;;6066117;23;20086;-84
2023/06/17 11:48:37;;;;;;;8.68;5.82;;;;;;;;;;6064252;23;20074;-85
2023/06/17 11:51:03;;;;;;;6.22;5.55;;;;;;;;;;6063450;23;20022;-83
2023/06/17 11:53:31;;;;;;;7.10;5.47;;;;;;;;;;6066291;23;20125;-83
2023/06/17 11:56:01;;;;;;;6.80;5.20;;;;;;;;;;6064082;23;20023;-82
2023/06/17 11:58:28;;;;;;;8.48;5.70;;;;;;;;;;6065979;23;20018;-84
2023/06/17 12:00:58;;;;;;;9.27;5.07;;;;;;;;;;6064414;23;20033;-82
2023/06/17 12:03:25;;;;;;;7.40;5.50;;;;;;;;;;6064910;23;20011;-82
2023/06/17 12:05:51;;;;;;;6.95;5.22;;;;;;;;;;6062956;23;20023;-82
2023/06/17 12:08:17;;;;;;;6.18;5.45;;;;;;;;;;6063788;23;20038;-82
2023/06/17 12:10:43;;;;;;;5.72;5.07;;;;;;;;;;6063563;23;20015;-84
2023/06/17 12:13:11;;;;;;;9.18;5.72;;;;;;;;;;6066071;23;20021;-84
2023/06/17 12:15:38;;;;;;;5.40;4.65;;;;;;;;;;6066003;23;20057;-84
2023/06/17 12:18:11;;;;;;;6.53;5.60;;;;;;;;;;6065542;23;20018;-83
2023/06/17 12:20:37;;;;;;;8.23;6.72;;;;;;;;;;6064098;23;20023;-87
2023/06/17 12:23:04;;;;;;;6.53;5.28;;;;;;;;;;6063783;23;20023;-85
2023/06/17 12:25:34;;;;;;;8.90;5.85;;;;;;;;;;6065761;23;20022;-85
2023/06/17 12:28:01;;;;;;;;;;;;;;;;;;6064837;23;20078;-85
2023/06/17 12:30:27;;;;;;;6.68;5.65;;;;;;;;;;6063266;23;19914;-83
2023/06/17 12:32:53;;;;;;;7.20;5.22;;;;;;;;;;6063543;23;20026;-84
2023/06/17 12:35:19;;;;;;;5.95;5.35;;;;;;;;;;6063134;23;20018;-89
2023/06/17 12:37:48;;;;;;;6.85;5.97;;;;;;;;;;6068350;23;20065;-90
2023/06/17 12:40:14;;;;;;;8.27;5.88;;;;;;;;;;6064192;23;20050;-93
2023/06/17 12:42:40;;;;;;;5.32;4.80;;;;;;;;;;6065112;23;20015;-92
2023/06/17 12:45:06;;;;;;;6.05;5.45;;;;;;;;;;6064674;23;20015;-91
2023/06/17 12:47:33;;;;;;;8.02;6.45;;;;;;;;;;6065223;23;20023;-90
2023/06/17 12:49:59;;;;;;;7.22;5.18;;;;;;;;;;6066221;23;20065;-92
2023/06/17 12:52:25;;;;;;;5.35;4.65;;;;;;;;;;6068471;23;20404;-91
2023/06/17 12:55:00;;;;;;;4.82;4.30;;;;;;;;;;6069621;23;20059;-92
2023/06/17 12:57:29;;;;;;;6.03;5.43;;;;;;;;;;6067563;23;20025;-92
2023/06/17 12:59:55;;;;;;;5.88;5.32;;;;;;;;;;6071653;23;20011;-90
2023/06/17 13:02:22;;;;;;;6.63;5.20;;;;;;;;;;6075414;23;20139;-90
2023/06/17 13:04:48;;;;;;;5.03;4.43;;;;;;;;;;6078617;23;20053;-90
2023/06/17 13:07:14;;;;;;;6.00;5.50;;;;;;;;;;6101029;23;20010;-92
2023/06/17 13:09:40;;;;;;;5.10;4.60;;;;;;;;;;6074917;23;20026;-92
2023/06/17 13:12:06;;;;;;;6.25;4.90;;;;;;;;;;6087385;23;20039;-92
2023/06/17 13:14:34;;;;;;;5.95;4.32;;;;;;;;;;6081144;23;20018;-90
2023/06/17 13:17:00;;;;;;;5.80;4.85;;;;;;;;;;6094055;23;20015;-95
2023/06/17 13:19:27;;;;;;;5.38;4.60;;;;;;;;;;6081894;23;20022;-91
2023/06/17 13:21:53;;;;;;;4.13;3.63;;;;;;;;;;6081159;23;20023;-88
2023/06/17 13:24:20;;;;;;;5.60;4.63;;;;;;;;;;6073225;23;20455;-90
2023/06/17 13:26:46;;;;;;;5.70;4.80;;;;;;;;;;6066051;23;20082;-89
2023/06/17 13:29:12;;;;;;;5.78;5.18;;;;;;;;;;6068802;23;20345;-91
2023/06/17 13:31:39;;;;;;;6.07;4.82;;;;;;;;;;6064443;23;20094;-91
2023/06/17 13:34:06;;;;;;;5.82;4.47;;;;;;;;;;6064041;23;20066;-91
2023/06/17 13:36:32;;;;;;;5.28;4.65;;;;;;;;;;6064364;23;20457;-89
2023/06/17 13:38:58;;;;;;;5.15;4.10;;;;;;;;;;6065966;23;20034;-91
2023/06/17 13:41:30;;;;;;;6.00;4.55;;;;;;;;;;6065589;23;20023;-90
2023/06/17 13:43:56;;;;;;;5.05;4.22;;;;;;;;;;6064570;23;20086;-91
2023/06/17 13:46:22;;;;;;;6.07;4.70;;;;;;;;;;6064687;23;20054;-89
2023/06/17 13:48:48;;;;;;;6.90;3.88;;;;;;;;;;6064808;23;20025;-93
2023/06/17 13:51:14;;;;;;;5.47;4.65;;;;;;;;;;6088003;23;20447;-92
2023/06/17 13:53:40;;;;;;;5.03;4.13;;;;;;;;;;6064019;23;20094;-92
2023/06/17 13:56:06;;;;;;;7.97;5.43;;;;;;;;;;6063625;23;20349;-90
2023/06/17 13:58:32;;;;;;;5.43;4.90;;;;;;;;;;6064324;23;20074;-91
2023/06/17 14:00:58;;;;;;;5.22;4.72;;;;;;;;;;6063840;23;20642;-89
2023/06/17 14:03:24;;;;;;;5.07;4.28;;;;;;;;;;6063492;23;20019;-92
2023/06/17 14:05:51;;;;;;;5.78;5.28;;;;;;;;;;6063553;23;20345;-91
2023/06/17 14:08:17;;;;;;;5.57;4.80;;;;;;;;;;6064398;23;20074;-93
2023/06/17 14:10:43;;;;;;;4.88;4.38;;;;;;;;;;6090756;23;20019;-91
2023/06/17 14:13:09;;;;;;;4.88;4.28;;;;;;;;;;6066753;23;20015;-91
2023/06/17 14:15:35;;;;;;;5.72;4.30;;;;;;;;;;6065353;23;20022;-90
2023/06/17 14:18:01;;;;;;;6.05;4.40;;;;;;;;;;6066098;23;20014;-90
2023/06/17 14:20:27;;;;;;;5.90;4.50;;;;;;;;;;6064712;23;20018;-91
2023/06/17 14:22:56;;;;;;;5.07;4.55;;;;;;;;;;6065314;23;20487;-91
2023/06/17 14:25:22;;;;;;;5.97;4.80;;;;;;;;;;6063649;23;20015;-92
2023/06/17 14:27:48;;;;;;;5.45;4.93;;;;;;;;;;6063294;23;20050;-90
2023/06/17 14:30:15;;;;;;;4.72;4.30;;;;;;;;;;6064911;23;20102;-89
2023/06/17 14:32:42;;;;;;;4.43;4.03;;;;;;;;;;6065291;23;20445;-90